Cape Canaveral AFS Skid Strip Cocoa Beach US
ICAO: KXMR
IATA: XMR
Category: Medium
Scheduled Services: No

Elevation: 10 ft
TransAlt. 18000 ft.

Airport Communications:
ORLANDO APP/DEP:134.95
PMSV METRO:344.6
CAPE TWR:118.625
:239.05

KXMR Zoom In..

Runways:

(A) RW 13 length 10000 ft width 200 ft
---- / hdg 131

(B) RW 31 length 10000 ft width 200 ft
---- / hdg 311

Location; KXMR
Day. 20 / Time. 09.56 Zulu
* Altimeter: 30.06
* Temperature: 15° c. 59°f.
* Wind from: 000° Speed 00 kn.
Dewpoint: 14° c.
Visibility: 5 Statute Miles.
Clouds: Scattered 4700 ft.
Conditions: Mist.

KXMR 200956Z AUTO 00000KT 5SM BR SCT047 15/14 A3006 RMK AO2 VIS 1 RWY31 SLP182 T01510140 FZRANO $


Wind - Calm.

  YouTube Music Video
 
jpsmedia.com for Web Design  worldairports.se 2018   terms of use